createdAt,value
2023-02-24T00:02:23.319Z,100143.41
2023-02-24T00:05:20.432Z,100142.56
2023-02-24T00:19:29.044Z,100138.13
2023-02-24T00:22:40.125Z,100135.53
2023-02-24T00:26:06.907Z,100132.09
2023-02-24T00:28:52.850Z,100130.34
2023-02-24T00:35:32.579Z,100122.47
2023-02-24T00:38:11.769Z,100117.25
2023-02-24T00:40:59.655Z,100108.53
2023-02-24T00:44:11.503Z,100114.56
2023-02-24T00:51:36.686Z,100108.31
2023-02-24T00:53:56.426Z,100118.63
2023-02-24T00:56:48.497Z,100109.88
2023-02-24T00:59:42.973Z,100114.00
2023-02-24T01:02:26.998Z,100111.19
2023-02-24T01:05:16.055Z,100120.53
2023-02-24T01:08:01.433Z,100107.38
2023-02-24T01:13:55.834Z,100107.03
2023-02-24T01:16:42.752Z,100107.00
2023-02-24T01:19:35.207Z,100101.81
2023-02-24T01:22:30.550Z,100107.00
2023-02-24T01:25:07.216Z,100105.16
2023-02-24T01:28:15.039Z,100107.72
2023-02-24T01:30:55.685Z,100100.72
2023-02-24T01:33:51.826Z,100106.75
2023-02-24T01:37:20.582Z,100095.41
2023-02-24T01:41:09.739Z,100093.59
2023-02-24T01:44:37.610Z,100094.31
2023-02-24T01:47:37.140Z,100088.03
2023-02-24T01:51:25.199Z,100094.72
2023-02-24T02:09:30.740Z,100080.75
2023-02-24T02:16:56.710Z,100084.75
2023-02-24T02:28:46.594Z,100069.13
2023-02-24T02:32:39.174Z,100071.75
2023-02-24T02:40:43.214Z,100068.81
2023-02-24T02:44:30.866Z,100066.13
2023-02-24T02:48:45.250Z,100059.03
2023-02-24T02:50:15.364Z,100066.47
2023-02-24T02:53:57.466Z,100068.50
2023-02-24T03:03:26.947Z,100047.50
2023-02-24T03:07:29.061Z,100061.06
2023-02-24T03:19:43.051Z,100060.97
2023-02-24T03:31:00.445Z,100049.44
2023-02-24T03:35:08.612Z,100039.84
2023-02-24T03:39:17.340Z,100035.53
2023-02-24T03:42:23.151Z,100028.56
2023-02-24T03:48:46.032Z,100015.69
2023-02-24T04:12:07.183Z,99996.03
2023-02-24T04:22:08.511Z,99996.91
2023-02-24T04:24:46.499Z,99990.13
2023-02-24T04:39:38.844Z,99969.94
2023-02-24T04:43:26.421Z,99970.66
2023-02-24T04:46:42.494Z,99964.59
2023-02-24T04:54:04.016Z,99955.16
2023-02-24T05:00:55.844Z,99950.09
2023-02-24T05:04:23.433Z,99947.47
2023-02-24T05:23:07.530Z,99917.84
2023-02-24T05:26:29.883Z,99925.59
2023-02-24T05:30:10.058Z,99921.28
2023-02-24T05:37:02.586Z,99906.66
2023-02-24T05:39:54.518Z,99904.03
2023-02-24T05:42:46.549Z,99903.91
2023-02-24T05:48:24.693Z,99897.75
2023-02-24T05:51:12.971Z,99892.56
2023-02-24T05:53:49.291Z,99891.72
2023-02-24T05:56:48.437Z,99884.81
2023-02-24T05:59:36.643Z,99879.69
2023-02-24T06:03:21.042Z,99890.91
2023-02-24T06:11:20.998Z,99885.03
2023-02-24T06:14:35.743Z,99872.97
2023-02-24T06:17:33.417Z,99873.88
2023-02-24T06:24:57.329Z,99860.25
2023-02-24T06:27:44.218Z,99872.41
2023-02-24T06:30:22.571Z,99861.28
2023-02-24T06:39:23.174Z,99850.94
2023-02-24T06:42:37.305Z,99851.00
2023-02-24T06:45:20.798Z,99845.94
2023-02-24T06:48:52.126Z,99848.75
2023-02-24T06:54:53.802Z,99837.59
2023-02-24T07:02:28.154Z,99825.59
2023-02-24T07:08:29.014Z,99824.78
2023-02-24T07:08:53.801Z,99825.75
2023-02-24T07:12:47.612Z,99820.69
2023-02-24T07:16:04.364Z,99812.97
2023-02-24T07:18:57.936Z,99817.22
2023-02-24T07:25:04.465Z,99810.22
2023-02-24T07:26:13.374Z,99816.25
2023-02-24T07:27:41.665Z,99800.66
2023-02-24T07:30:25.786Z,99800.72
2023-02-24T07:32:59.085Z,99803.34
2023-02-24T07:35:37.240Z,99790.38
2023-02-24T07:38:25.338Z,99790.25
2023-02-24T07:41:31.547Z,99786.78
2023-02-24T07:44:02.403Z,99785.09
2023-02-24T07:46:38.988Z,99785.94
2023-02-24T07:49:20.669Z,99776.50
2023-02-24T07:52:03.231Z,99770.50
2023-02-24T07:54:44.682Z,99762.78
2023-02-24T07:57:19.577Z,99760.31
2023-02-24T07:59:57.281Z,99750.16
2023-02-24T08:02:33.838Z,99749.47
2023-02-24T08:05:10.822Z,99741.94
2023-02-24T08:07:40.840Z,99732.63
2023-02-24T08:10:16.845Z,99726.72
2023-02-24T08:16:08.656Z,99711.31
2023-02-24T08:18:50.992Z,99708.94
2023-02-24T08:21:29.632Z,99696.06
2023-02-24T08:24:20.869Z,99697.78
2023-02-24T08:27:10.380Z,99693.38
2023-02-24T08:30:03.504Z,99697.72
2023-02-24T08:32:48.854Z,99690.84
2023-02-24T08:38:32.579Z,99665.97
2023-02-24T08:42:01.626Z,99670.44
2023-02-24T08:44:29.392Z,99676.63
2023-02-24T08:47:14.547Z,99670.69
2023-02-24T08:50:03.412Z,99666.63
2023-02-24T08:52:54.199Z,99664.25
2023-02-24T08:56:24.821Z,99659.22
2023-02-24T08:59:30.897Z,99647.19
2023-02-24T09:02:24.349Z,99647.28
2023-02-24T09:05:25.821Z,99634.28
2023-02-24T09:08:24.645Z,99632.59
2023-02-24T09:15:23.721Z,99623.09
2023-02-24T09:19:23.994Z,99610.13
2023-02-24T09:26:57.512Z,99616.88
2023-02-24T09:29:54.810Z,99606.41
2023-02-24T09:32:40.904Z,99601.19
2023-02-24T09:35:42.046Z,99592.53
2023-02-24T09:38:55.774Z,99587.34
2023-02-24T09:49:06.967Z,99583.78
2023-02-24T09:52:12.345Z,99570.78
2023-02-24T09:55:22.013Z,99559.59
2023-02-24T10:03:09.243Z,99548.59
2023-02-24T10:06:40.891Z,99556.50
2023-02-24T10:17:51.087Z,99529.91
2023-02-24T10:20:48.138Z,99524.75
2023-02-24T10:23:54.750Z,99531.72
2023-02-24T10:27:29.390Z,99528.34
2023-02-24T10:30:31.175Z,99517.13
2023-02-24T10:33:44.228Z,99513.69
2023-02-24T10:36:53.610Z,99511.16
2023-02-24T10:39:44.839Z,99495.59
2023-02-24T10:46:07.285Z,99481.63
2023-02-24T10:48:42.423Z,99480.75
2023-02-24T10:51:42.687Z,99471.19
2023-02-24T10:54:36.646Z,99473.72
2023-02-24T10:57:22.675Z,99471.88
2023-02-24T11:01:21.460Z,99460.53
2023-02-24T11:04:33.809Z,99465.50
2023-02-24T11:07:26.002Z,99458.34
2023-02-24T11:10:53.915Z,99460.69
2023-02-24T11:13:44.070Z,99459.56
2023-02-24T11:16:42.275Z,99448.16
2023-02-24T11:19:24.282Z,99455.72
2023-02-24T11:22:03.040Z,99440.97
2023-02-24T11:24:34.780Z,99439.22
2023-02-24T11:27:31.784Z,99436.53
2023-02-24T11:30:47.347Z,99427.03
2023-02-24T11:34:03.701Z,99422.63
2023-02-24T11:36:41.474Z,99420.91
2023-02-24T11:39:54.053Z,99416.47
2023-02-24T11:42:54.059Z,99406.06
2023-02-24T11:45:51.384Z,99401.59
2023-02-24T11:48:51.817Z,99401.47
2023-02-24T11:51:42.930Z,99380.66
2023-02-24T11:54:16.180Z,99388.38
2023-02-24T11:57:04.380Z,99382.38
2023-02-24T11:59:57.918Z,99377.94
2023-02-24T12:02:53.675Z,99370.09
2023-02-24T12:09:30.752Z,99357.13
2023-02-24T12:12:39.221Z,99350.97
2023-02-24T12:15:54.380Z,99333.72
2023-02-24T12:18:53.417Z,99334.59
2023-02-24T12:22:19.299Z,99328.59
2023-02-24T12:29:17.852Z,99311.41
2023-02-24T12:36:29.278Z,99314.03
2023-02-24T12:48:19.834Z,99282.78
2023-02-24T12:52:29.516Z,99281.91
2023-02-24T12:55:35.634Z,99274.13
2023-02-24T12:58:35.137Z,99266.38
2023-02-24T13:01:51.530Z,99255.22
2023-02-24T13:04:51.591Z,99250.03
2023-02-24T13:08:00.262Z,99238.88
2023-02-24T13:11:04.460Z,99227.63
2023-02-24T13:14:13.711Z,99222.38
2023-02-24T13:16:42.000Z,99226.63
2023-02-24T13:19:32.958Z,99222.22
2023-02-24T13:22:31.854Z,99217.84
2023-02-24T13:25:27.062Z,99197.09
2023-02-24T13:28:14.625Z,99204.78
2023-02-24T13:31:05.983Z,99194.34
2023-02-24T13:33:48.102Z,99197.75
2023-02-24T13:36:22.628Z,99195.22
2023-02-24T13:39:38.979Z,99189.19
2023-02-24T13:42:28.376Z,99185.69
2023-02-24T13:45:30.396Z,99178.72
2023-02-24T13:48:50.152Z,99169.25
2023-02-24T13:51:47.739Z,99169.28
2023-02-24T13:54:37.472Z,99164.97
2023-02-24T13:57:42.738Z,99167.50
2023-02-24T14:00:43.091Z,99164.13
2023-02-24T14:03:22.442Z,99157.25
2023-02-24T14:06:02.267Z,99152.09
2023-02-24T14:08:39.458Z,99138.31
2023-02-24T14:11:14.671Z,99144.31
2023-02-24T14:13:49.015Z,99132.28
2023-02-24T14:16:24.040Z,99130.53
2023-02-24T14:19:05.035Z,99123.69
2023-02-24T14:21:34.938Z,99124.50
2023-02-24T14:24:29.629Z,99127.88
2023-02-24T14:27:41.200Z,99115.81
2023-02-24T14:30:28.179Z,99119.22
2023-02-24T14:32:59.544Z,99108.88
2023-02-24T14:35:50.930Z,99100.28
2023-02-24T14:38:41.191Z,99096.00
2023-02-24T14:41:25.030Z,99097.75
2023-02-24T14:44:19.491Z,99094.31
2023-02-24T14:47:01.756Z,99096.91
2023-02-24T14:49:34.614Z,99081.44
2023-02-24T14:52:15.276Z,99084.03
2023-02-24T14:55:13.051Z,99070.28
2023-02-24T14:58:08.674Z,99078.03
2023-02-24T15:00:42.160Z,99090.13
2023-02-24T15:03:49.821Z,99072.94
2023-02-24T15:06:41.714Z,99071.25
2023-02-24T15:09:36.880Z,99049.69
2023-02-24T15:12:26.960Z,99057.41
2023-02-24T15:15:13.899Z,99056.53
2023-02-24T15:17:47.983Z,99061.69
2023-02-24T15:20:48.000Z,99039.25
2023-02-24T15:23:32.859Z,99034.91
2023-02-24T15:26:29.752Z,99028.03
2023-02-24T15:29:22.440Z,99034.00
2023-02-24T15:31:56.782Z,99027.09
2023-02-24T15:34:39.081Z,99012.41
2023-02-24T15:37:24.441Z,99010.69
2023-02-24T15:40:24.374Z,99008.91
2023-02-24T15:43:00.566Z,99005.44
2023-02-24T15:45:37.794Z,99001.06
2023-02-24T15:48:22.015Z,98990.72
2023-02-24T15:50:52.794Z,98982.13
2023-02-24T15:53:20.088Z,98975.25
2023-02-24T15:55:50.384Z,98974.41
2023-02-24T15:58:23.572Z,98974.41
2023-02-24T16:00:52.806Z,98983.88
2023-02-24T16:03:23.701Z,98966.66
2023-02-24T16:05:51.749Z,98974.41
2023-02-24T16:08:20.527Z,98971.94
2023-02-24T16:10:50.746Z,98968.53
2023-02-24T16:13:28.183Z,98963.38
2023-02-24T16:15:58.472Z,98955.66
2023-02-24T16:18:26.380Z,98953.94
2023-02-24T16:20:57.443Z,98946.25
2023-02-24T16:23:26.671Z,98951.47
2023-02-24T16:25:59.536Z,98942.00
2023-02-24T16:28:30.914Z,98933.41
2023-02-24T16:31:37.102Z,98942.00
2023-02-24T16:34:12.244Z,98946.31
2023-02-24T16:36:47.605Z,98932.56
2023-02-24T16:39:15.675Z,98938.56
2023-02-24T16:41:43.510Z,98932.56
2023-02-24T16:44:10.694Z,98932.56
2023-02-24T16:46:41.230Z,98927.38
2023-02-24T16:49:14.010Z,98928.25
2023-02-24T16:51:40.984Z,98919.69
2023-02-24T16:54:08.370Z,98923.19
2023-02-24T16:56:35.324Z,98919.78
2023-02-24T16:59:03.150Z,98914.63
2023-02-24T17:01:30.425Z,98915.47
2023-02-24T17:03:57.432Z,98918.94
2023-02-24T17:06:25.487Z,98906.03
2023-02-24T17:08:52.770Z,98913.81
2023-02-24T17:11:21.769Z,98908.69
2023-02-24T17:13:48.857Z,98895.78
2023-02-24T17:16:15.763Z,98900.09
2023-02-24T17:18:42.661Z,98900.97
2023-02-24T17:21:14.058Z,98905.28
2023-02-24T17:23:42.547Z,98891.53
2023-02-24T17:26:15.240Z,98885.53
2023-02-24T17:28:42.402Z,98890.69
2023-02-24T17:31:09.386Z,98890.69
2023-02-24T17:33:36.459Z,98891.59
2023-02-24T17:36:03.528Z,98876.97
2023-02-24T17:38:30.461Z,98876.94
2023-02-24T17:40:57.718Z,98888.16
2023-02-24T17:43:24.713Z,98873.53
2023-02-24T17:45:53.006Z,98883.88
2023-02-24T17:48:20.533Z,98871.81
2023-02-24T17:50:48.368Z,98871.84
2023-02-24T17:53:15.453Z,98871.88
2023-02-24T17:56:01.034Z,98865.00
2023-02-24T17:58:28.696Z,98860.69
2023-02-24T18:00:55.625Z,98846.91
2023-02-24T18:03:22.605Z,98849.47
2023-02-24T18:06:26.251Z,98835.72
2023-02-24T18:08:53.127Z,98839.16
2023-02-24T18:11:20.992Z,98833.16
2023-02-24T18:13:50.885Z,98838.31
2023-02-24T18:16:18.085Z,98830.56
2023-02-24T18:18:45.172Z,98816.81
2023-02-24T18:21:12.499Z,98823.69
2023-02-24T18:23:40.406Z,98823.72
2023-02-24T18:26:11.285Z,98812.56
2023-02-24T18:28:39.368Z,98822.91
2023-02-24T18:31:23.578Z,98822.88
2023-02-24T18:33:50.701Z,98816.00
2023-02-24T18:36:18.387Z,98813.41
2023-02-24T18:38:46.191Z,98808.28
2023-02-24T18:41:20.163Z,98804.84
2023-02-24T18:43:54.447Z,98803.16
2023-02-24T18:46:23.330Z,98795.41
2023-02-24T18:48:50.946Z,98800.56
2023-02-24T18:51:23.582Z,98791.09
2023-02-24T18:53:52.728Z,98795.41
2023-02-24T18:56:27.806Z,98785.97
2023-02-24T18:58:57.765Z,98789.41
2023-02-24T19:01:34.523Z,98783.38
2023-02-24T19:04:02.297Z,98778.25
2023-02-24T19:06:31.307Z,98781.72
2023-02-24T19:09:07.491Z,98773.09
2023-02-24T19:11:34.553Z,98774.81
2023-02-24T19:14:01.577Z,98769.66
2023-02-24T19:16:29.126Z,98769.69
2023-02-24T19:18:58.311Z,98767.97
2023-02-24T19:21:28.327Z,98765.41
2023-02-24T19:23:55.439Z,98762.84
2023-02-24T19:26:26.516Z,98759.41
2023-02-24T19:28:54.469Z,98763.75
2023-02-24T19:31:26.249Z,98750.00
2023-02-24T19:34:02.436Z,98748.28
2023-02-24T19:36:31.474Z,98741.38
2023-02-24T19:38:58.515Z,98743.06
2023-02-24T19:41:25.960Z,98741.34
2023-02-24T19:43:53.162Z,98731.00
2023-02-24T19:46:20.614Z,98731.00
2023-02-24T19:48:48.487Z,98733.56
2023-02-24T19:51:22.821Z,98723.25
2023-02-24T19:53:53.927Z,98726.66
2023-02-24T19:56:26.802Z,98724.06
2023-02-24T19:58:55.001Z,98718.03
2023-02-24T20:01:23.245Z,98712.00
2023-02-24T20:03:50.583Z,98718.91
2023-02-24T20:06:28.865Z,98714.59
2023-02-24T20:08:57.421Z,98712.03
2023-02-24T20:11:25.003Z,98710.28
2023-02-24T20:13:53.323Z,98710.31
2023-02-24T20:16:24.904Z,98712.03
2023-02-24T20:18:55.341Z,98703.41
2023-02-24T20:21:22.582Z,98708.56
2023-02-24T20:23:49.574Z,98701.69
2023-02-24T20:26:17.331Z,98696.50
2023-02-24T20:28:46.842Z,98704.28
2023-02-24T20:31:19.294Z,98698.25
2023-02-24T20:33:49.061Z,98699.09
2023-02-24T20:36:23.603Z,98707.69
2023-02-24T20:38:51.923Z,98696.50
2023-02-24T20:41:20.492Z,98694.75
2023-02-24T20:43:49.581Z,98696.47
2023-02-24T20:46:25.249Z,98690.44
2023-02-24T20:49:05.380Z,98687.03
2023-02-24T20:51:34.132Z,98687.91
2023-02-24T20:54:01.375Z,98684.47
2023-02-24T20:56:33.116Z,98687.91
2023-02-24T20:59:04.888Z,98688.78
2023-02-24T21:01:33.488Z,98669.81
2023-02-24T21:04:01.734Z,98668.97
2023-02-24T21:06:29.773Z,98681.88
2023-02-24T21:08:58.046Z,98673.28
2023-02-24T21:11:25.861Z,98664.66
2023-02-24T21:13:53.308Z,98661.22
2023-02-24T21:16:22.021Z,98656.03
2023-02-24T21:18:51.481Z,98645.72
2023-02-24T21:21:19.774Z,98646.59
2023-02-24T21:23:47.555Z,98642.28
2023-02-24T21:26:15.285Z,98645.72
2023-02-24T21:28:42.299Z,98627.63
2023-02-24T21:31:12.875Z,98631.06
2023-02-24T21:33:39.924Z,98626.78
2023-02-24T21:36:13.559Z,98625.03
2023-02-24T21:38:41.311Z,98629.34
2023-02-24T21:41:14.752Z,98627.63
2023-02-24T21:43:44.156Z,98628.50
2023-02-24T21:46:13.477Z,98624.22
2023-02-24T21:48:41.764Z,98612.16
2023-02-24T21:51:11.945Z,98609.56
2023-02-24T21:53:43.448Z,98606.97
2023-02-24T21:56:17.529Z,98610.44
2023-02-24T21:58:48.188Z,98598.38
2023-02-24T22:01:18.986Z,98593.22
2023-02-24T22:03:46.363Z,98596.66
2023-02-24T22:06:16.787Z,98587.19
2023-02-24T22:08:45.324Z,98591.50
2023-02-24T22:11:15.860Z,98584.63
2023-02-24T22:13:44.483Z,98590.63
2023-02-24T22:16:18.188Z,98584.59
2023-02-24T22:18:46.680Z,98573.41
2023-02-24T22:21:17.746Z,98567.38
2023-02-24T22:23:46.877Z,98567.38
2023-02-24T22:26:15.319Z,98569.09
2023-02-24T22:28:44.668Z,98562.22
2023-02-24T22:31:14.623Z,98550.13
2023-02-24T22:33:43.399Z,98556.16
2023-02-24T22:36:27.926Z,98559.59
2023-02-24T22:38:57.610Z,98557.03
2023-02-24T22:41:31.634Z,98572.53
2023-02-24T22:43:59.720Z,98560.47
2023-02-24T22:46:33.733Z,98561.34
2023-02-24T22:49:00.989Z,98556.16
2023-02-24T22:51:28.417Z,98549.28
2023-02-24T22:53:56.247Z,98545.81
2023-02-24T22:56:27.244Z,98545.81
2023-02-24T22:58:55.075Z,98551.88
2023-02-24T23:01:34.993Z,98554.47
2023-02-24T23:04:04.859Z,98553.59
2023-02-24T23:06:32.853Z,98553.59
2023-02-24T23:09:00.986Z,98554.47
2023-02-24T23:11:35.050Z,98558.75
2023-02-24T23:14:06.038Z,98553.59
2023-02-24T23:16:35.404Z,98550.16
2023-02-24T23:19:13.055Z,98543.25
2023-02-24T23:21:49.788Z,98548.41
2023-02-24T23:24:18.569Z,98542.38
2023-02-24T23:26:53.999Z,98544.97
2023-02-24T23:29:23.097Z,98545.81
2023-02-24T23:31:50.609Z,98545.81
2023-02-24T23:34:18.106Z,98546.69
2023-02-24T23:36:46.899Z,98541.50
2023-02-24T23:39:18.224Z,98537.19
2023-02-24T23:41:45.532Z,98541.53
2023-02-24T23:44:12.742Z,98532.91
2023-02-24T23:46:41.698Z,98527.75
2023-02-24T23:49:08.906Z,98541.53
2023-02-24T23:51:47.460Z,98531.19
2023-02-24T23:54:17.956Z,98528.59
2023-02-24T23:56:45.367Z,98528.59
2023-02-24T23:59:12.324Z,98519.97
